sensor_id;sensor_type;location;lat;lon;timestamp;temperature;humidity
21302;DHT22;10810;48.270;9.996;2022-08-19T00:01:59;22.10;96.50
21302;DHT22;10810;48.270;9.996;2022-08-19T00:04:29;22.00;96.50
21302;DHT22;10810;48.270;9.996;2022-08-19T00:06:58;21.90;96.50
21302;DHT22;10810;48.270;9.996;2022-08-19T00:09:27;21.90;96.50
21302;DHT22;10810;48.270;9.996;2022-08-19T00:12:01;21.90;96.50
21302;DHT22;10810;48.270;9.996;2022-08-19T00:14:31;21.90;96.50
21302;DHT22;10810;48.270;9.996;2022-08-19T00:17:00;21.90;96.60
21302;DHT22;10810;48.270;9.996;2022-08-19T00:19:28;21.90;96.60
21302;DHT22;10810;48.270;9.996;2022-08-19T00:21:55;21.90;96.60
21302;DHT22;10810;48.270;9.996;2022-08-19T00:24:29;21.90;96.50
21302;DHT22;10810;48.270;9.996;2022-08-19T00:26:58;21.90;96.50
21302;DHT22;10810;48.270;9.996;2022-08-19T00:29:30;21.80;96.50
21302;DHT22;10810;48.270;9.996;2022-08-19T00:32:00;21.90;96.50
21302;DHT22;10810;48.270;9.996;2022-08-19T00:34:30;21.90;96.50
21302;DHT22;10810;48.270;9.996;2022-08-19T00:37:01;21.80;96.50
21302;DHT22;10810;48.270;9.996;2022-08-19T00:39:28;21.80;96.50
21302;DHT22;10810;48.270;9.996;2022-08-19T00:41:55;21.90;96.50
21302;DHT22;10810;48.270;9.996;2022-08-19T00:44:26;21.80;96.50
21302;DHT22;10810;48.270;9.996;2022-08-19T00:47:13;21.80;96.40
21302;DHT22;10810;48.270;9.996;2022-08-19T00:49:44;21.90;96.40
21302;DHT22;10810;48.270;9.996;2022-08-19T00:52:19;21.90;96.40
21302;DHT22;10810;48.270;9.996;2022-08-19T00:54:49;21.80;96.40
21302;DHT22;10810;48.270;9.996;2022-08-19T00:57:26;21.90;96.40
21302;DHT22;10810;48.270;9.996;2022-08-19T01:00:00;21.90;96.50
21302;DHT22;10810;48.270;9.996;2022-08-19T01:02:51;21.80;96.40
21302;DHT22;10810;48.270;9.996;2022-08-19T01:05:27;21.80;96.40
21302;DHT22;10810;48.270;9.996;2022-08-19T01:07:56;21.80;96.40
21302;DHT22;10810;48.270;9.996;2022-08-19T01:10:31;21.80;96.70
21302;DHT22;10810;48.270;9.996;2022-08-19T01:13:07;21.80;96.40
21302;DHT22;10810;48.270;9.996;2022-08-19T01:15:43;21.80;96.40
21302;DHT22;10810;48.270;9.996;2022-08-19T01:18:16;21.80;96.40
21302;DHT22;10810;48.270;9.996;2022-08-19T01:20:45;21.80;96.40
21302;DHT22;10810;48.270;9.996;2022-08-19T01:23:14;21.80;96.50
21302;DHT22;10810;48.270;9.996;2022-08-19T01:25:46;21.70;96.40
21302;DHT22;10810;48.270;9.996;2022-08-19T01:28:19;21.70;96.40
21302;DHT22;10810;48.270;9.996;2022-08-19T01:30:49;21.70;96.40
21302;DHT22;10810;48.270;9.996;2022-08-19T01:33:18;21.80;96.50
21302;DHT22;10810;48.270;9.996;2022-08-19T01:35:49;21.80;96.50
21302;DHT22;10810;48.270;9.996;2022-08-19T01:38:25;21.70;96.40
21302;DHT22;10810;48.270;9.996;2022-08-19T01:41:04;21.70;96.50
21302;DHT22;10810;48.270;9.996;2022-08-19T01:43:34;21.70;96.50
21302;DHT22;10810;48.270;9.996;2022-08-19T01:46:11;21.70;96.50
21302;DHT22;10810;48.270;9.996;2022-08-19T01:48:41;21.70;96.50
21302;DHT22;10810;48.270;9.996;2022-08-19T01:51:11;21.70;96.50
21302;DHT22;10810;48.270;9.996;2022-08-19T01:53:45;21.70;96.50
21302;DHT22;10810;48.270;9.996;2022-08-19T01:56:13;21.70;96.50
21302;DHT22;10810;48.270;9.996;2022-08-19T01:58:46;21.70;96.50
21302;DHT22;10810;48.270;9.996;2022-08-19T02:01:15;21.70;96.50
21302;DHT22;10810;48.270;9.996;2022-08-19T02:03:43;21.70;96.50
21302;DHT22;10810;48.270;9.996;2022-08-19T02:06:12;21.70;96.50
21302;DHT22;10810;48.270;9.996;2022-08-19T02:08:49;21.70;96.50
21302;DHT22;10810;48.270;9.996;2022-08-19T02:11:22;21.70;96.50
21302;DHT22;10810;48.270;9.996;2022-08-19T02:14:01;21.70;96.60
21302;DHT22;10810;48.270;9.996;2022-08-19T02:16:31;21.70;96.60
21302;DHT22;10810;48.270;9.996;2022-08-19T02:19:00;21.60;96.50
21302;DHT22;10810;48.270;9.996;2022-08-19T02:21:28;21.60;96.50
21302;DHT22;10810;48.270;9.996;2022-08-19T02:23:59;21.60;96.60
21302;DHT22;10810;48.270;9.996;2022-08-19T02:26:28;21.70;96.50
21302;DHT22;10810;48.270;9.996;2022-08-19T02:28:58;21.60;96.50
21302;DHT22;10810;48.270;9.996;2022-08-19T02:31:28;21.60;96.50
21302;DHT22;10810;48.270;9.996;2022-08-19T02:33:58;21.60;96.50
21302;DHT22;10810;48.270;9.996;2022-08-19T02:36:27;21.60;96.60
21302;DHT22;10810;48.270;9.996;2022-08-19T02:38:57;21.60;96.60
21302;DHT22;10810;48.270;9.996;2022-08-19T02:41:31;21.60;96.60
21302;DHT22;10810;48.270;9.996;2022-08-19T02:44:01;21.50;96.60
21302;DHT22;10810;48.270;9.996;2022-08-19T02:46:35;21.50;96.60
21302;DHT22;10810;48.270;9.996;2022-08-19T02:49:26;21.60;96.70
21302;DHT22;10810;48.270;9.996;2022-08-19T02:52:06;21.50;96.70
21302;DHT22;10810;48.270;9.996;2022-08-19T02:54:36;21.60;96.70
21302;DHT22;10810;48.270;9.996;2022-08-19T02:57:04;21.50;96.70
21302;DHT22;10810;48.270;9.996;2022-08-19T02:59:49;21.50;96.60
21302;DHT22;10810;48.270;9.996;2022-08-19T03:02:19;21.50;96.60
21302;DHT22;10810;48.270;9.996;2022-08-19T03:04:48;21.60;96.70
21302;DHT22;10810;48.270;9.996;2022-08-19T03:07:21;21.50;96.70
21302;DHT22;10810;48.270;9.996;2022-08-19T03:09:50;21.50;96.70
21302;DHT22;10810;48.270;9.996;2022-08-19T03:12:17;21.40;96.60
21302;DHT22;10810;48.270;9.996;2022-08-19T03:14:46;21.40;96.60
21302;DHT22;10810;48.270;9.996;2022-08-19T03:17:15;21.40;96.60
21302;DHT22;10810;48.270;9.996;2022-08-19T03:19:44;21.40;96.60
21302;DHT22;10810;48.270;9.996;2022-08-19T03:22:11;21.40;96.70
21302;DHT22;10810;48.270;9.996;2022-08-19T03:24:39;21.40;96.70
21302;DHT22;10810;48.270;9.996;2022-08-19T03:27:11;21.40;96.70
21302;DHT22;10810;48.270;9.996;2022-08-19T03:29:45;21.30;96.80
21302;DHT22;10810;48.270;9.996;2022-08-19T03:32:20;21.30;96.70
21302;DHT22;10810;48.270;9.996;2022-08-19T03:34:54;21.40;96.70
21302;DHT22;10810;48.270;9.996;2022-08-19T03:37:23;21.40;96.80
21302;DHT22;10810;48.270;9.996;2022-08-19T03:39:51;21.40;96.80
21302;DHT22;10810;48.270;9.996;2022-08-19T03:42:20;21.30;96.80
21302;DHT22;10810;48.270;9.996;2022-08-19T03:44:47;21.30;96.80
21302;DHT22;10810;48.270;9.996;2022-08-19T03:47:22;21.30;96.90
21302;DHT22;10810;48.270;9.996;2022-08-19T03:49:49;21.30;97.00
21302;DHT22;10810;48.270;9.996;2022-08-19T03:52:17;21.30;97.00
21302;DHT22;10810;48.270;9.996;2022-08-19T03:54:46;21.30;97.10
21302;DHT22;10810;48.270;9.996;2022-08-19T03:57:13;21.30;97.10
21302;DHT22;10810;48.270;9.996;2022-08-19T03:59:44;21.30;97.00
21302;DHT22;10810;48.270;9.996;2022-08-19T04:02:13;21.30;97.10
21302;DHT22;10810;48.270;9.996;2022-08-19T04:04:44;21.30;97.10
21302;DHT22;10810;48.270;9.996;2022-08-19T04:07:14;21.20;97.10
21302;DHT22;10810;48.270;9.996;2022-08-19T04:09:47;21.20;97.00
21302;DHT22;10810;48.270;9.996;2022-08-19T04:12:14;21.20;97.10
21302;DHT22;10810;48.270;9.996;2022-08-19T04:14:43;21.20;97.20
21302;DHT22;10810;48.270;9.996;2022-08-19T04:17:13;21.20;97.40
21302;DHT22;10810;48.270;9.996;2022-08-19T04:19:40;21.20;97.10
21302;DHT22;10810;48.270;9.996;2022-08-19T04:22:08;21.20;97.10
21302;DHT22;10810;48.270;9.996;2022-08-19T04:24:37;21.20;97.00
21302;DHT22;10810;48.270;9.996;2022-08-19T04:27:05;21.20;97.10
21302;DHT22;10810;48.270;9.996;2022-08-19T04:29:35;21.20;97.30
21302;DHT22;10810;48.270;9.996;2022-08-19T04:32:15;21.20;97.10
21302;DHT22;10810;48.270;9.996;2022-08-19T04:34:47;21.20;97.20
21302;DHT22;10810;48.270;9.996;2022-08-19T04:37:20;21.20;97.10
21302;DHT22;10810;48.270;9.996;2022-08-19T04:39:48;21.20;97.20
21302;DHT22;10810;48.270;9.996;2022-08-19T04:42:35;21.20;97.10
21302;DHT22;10810;48.270;9.996;2022-08-19T04:45:06;21.20;97.10
21302;DHT22;10810;48.270;9.996;2022-08-19T04:47:37;21.20;97.20
21302;DHT22;10810;48.270;9.996;2022-08-19T04:50:07;21.20;97.20
21302;DHT22;10810;48.270;9.996;2022-08-19T04:52:39;21.20;97.20
21302;DHT22;10810;48.270;9.996;2022-08-19T04:55:08;21.20;97.30
21302;DHT22;10810;48.270;9.996;2022-08-19T04:57:36;21.20;97.30
21302;DHT22;10810;48.270;9.996;2022-08-19T05:00:09;21.20;97.40
21302;DHT22;10810;48.270;9.996;2022-08-19T05:02:38;21.20;97.40
21302;DHT22;10810;48.270;9.996;2022-08-19T05:05:06;21.20;97.40
21302;DHT22;10810;48.270;9.996;2022-08-19T05:07:33;21.10;97.40
21302;DHT22;10810;48.270;9.996;2022-08-19T05:10:01;21.10;97.40
21302;DHT22;10810;48.270;9.996;2022-08-19T05:12:28;21.10;97.40
21302;DHT22;10810;48.270;9.996;2022-08-19T05:15:04;21.10;97.40
21302;DHT22;10810;48.270;9.996;2022-08-19T05:17:33;21.10;97.40
21302;DHT22;10810;48.270;9.996;2022-08-19T05:20:20;21.10;97.40
21302;DHT22;10810;48.270;9.996;2022-08-19T05:23:05;21.10;97.50
21302;DHT22;10810;48.270;9.996;2022-08-19T05:25:41;21.10;97.50
21302;DHT22;10810;48.270;9.996;2022-08-19T05:28:10;21.10;97.50
21302;DHT22;10810;48.270;9.996;2022-08-19T05:30:41;21.10;97.50
21302;DHT22;10810;48.270;9.996;2022-08-19T05:33:10;21.10;97.50
21302;DHT22;10810;48.270;9.996;2022-08-19T05:35:40;21.10;97.50
21302;DHT22;10810;48.270;9.996;2022-08-19T05:38:13;21.10;97.50
21302;DHT22;10810;48.270;9.996;2022-08-19T05:40:46;21.10;97.50
21302;DHT22;10810;48.270;9.996;2022-08-19T05:43:28;21.10;97.50
21302;DHT22;10810;48.270;9.996;2022-08-19T05:45:56;21.10;97.60
21302;DHT22;10810;48.270;9.996;2022-08-19T05:48:25;21.10;97.60
21302;DHT22;10810;48.270;9.996;2022-08-19T05:51:05;21.10;97.60
21302;DHT22;10810;48.270;9.996;2022-08-19T05:53:34;21.10;97.70
21302;DHT22;10810;48.270;9.996;2022-08-19T05:56:04;21.10;97.80
21302;DHT22;10810;48.270;9.996;2022-08-19T05:58:31;21.10;97.70
21302;DHT22;10810;48.270;9.996;2022-08-19T06:00:58;21.10;97.70
21302;DHT22;10810;48.270;9.996;2022-08-19T06:03:30;21.10;97.70
21302;DHT22;10810;48.270;9.996;2022-08-19T06:06:01;21.10;97.60
21302;DHT22;10810;48.270;9.996;2022-08-19T06:08:32;21.10;97.70
21302;DHT22;10810;48.270;9.996;2022-08-19T06:11:15;21.10;97.60
21302;DHT22;10810;48.270;9.996;2022-08-19T06:13:44;21.00;97.60
21302;DHT22;10810;48.270;9.996;2022-08-19T06:16:12;21.10;97.70
21302;DHT22;10810;48.270;9.996;2022-08-19T06:18:49;21.00;97.70
21302;DHT22;10810;48.270;9.996;2022-08-19T06:21:21;21.10;97.70
21302;DHT22;10810;48.270;9.996;2022-08-19T06:23:49;21.10;97.80
21302;DHT22;10810;48.270;9.996;2022-08-19T06:26:17;21.00;97.80
21302;DHT22;10810;48.270;9.996;2022-08-19T06:28:45;21.10;97.90
21302;DHT22;10810;48.270;9.996;2022-08-19T06:31:16;21.00;97.80
21302;DHT22;10810;48.270;9.996;2022-08-19T06:33:49;21.00;97.80
21302;DHT22;10810;48.270;9.996;2022-08-19T06:36:45;21.10;97.80
21302;DHT22;10810;48.270;9.996;2022-08-19T06:39:20;21.00;97.80
21302;DHT22;10810;48.270;9.996;2022-08-19T06:41:55;20.90;97.80
21302;DHT22;10810;48.270;9.996;2022-08-19T06:44:28;20.90;97.80
21302;DHT22;10810;48.270;9.996;2022-08-19T06:47:05;20.90;97.70
21302;DHT22;10810;48.270;9.996;2022-08-19T06:49:33;20.90;97.80
21302;DHT22;10810;48.270;9.996;2022-08-19T06:52:05;20.90;97.80
21302;DHT22;10810;48.270;9.996;2022-08-19T06:54:34;20.90;97.80
21302;DHT22;10810;48.270;9.996;2022-08-19T06:57:18;20.90;97.80
21302;DHT22;10810;48.270;9.996;2022-08-19T06:59:49;20.90;97.80
21302;DHT22;10810;48.270;9.996;2022-08-19T07:02:16;20.90;97.90
21302;DHT22;10810;48.270;9.996;2022-08-19T07:04:57;20.90;98.00
21302;DHT22;10810;48.270;9.996;2022-08-19T07:07:45;20.90;98.00
21302;DHT22;10810;48.270;9.996;2022-08-19T07:10:15;20.80;98.00
21302;DHT22;10810;48.270;9.996;2022-08-19T07:12:42;20.90;98.00
21302;DHT22;10810;48.270;9.996;2022-08-19T07:15:10;20.80;98.00
21302;DHT22;10810;48.270;9.996;2022-08-19T07:17:38;20.80;98.10
21302;DHT22;10810;48.270;9.996;2022-08-19T07:20:06;20.90;98.00
21302;DHT22;10810;48.270;9.996;2022-08-19T07:22:34;20.80;98.10
21302;DHT22;10810;48.270;9.996;2022-08-19T07:25:03;20.80;98.10
21302;DHT22;10810;48.270;9.996;2022-08-19T07:27:30;20.80;98.20
21302;DHT22;10810;48.270;9.996;2022-08-19T07:30:03;20.80;98.10
21302;DHT22;10810;48.270;9.996;2022-08-19T07:32:31;20.80;98.10
21302;DHT22;10810;48.270;9.996;2022-08-19T07:35:00;20.80;98.00
21302;DHT22;10810;48.270;9.996;2022-08-19T07:37:33;20.90;98.10
21302;DHT22;10810;48.270;9.996;2022-08-19T07:40:11;20.80;98.10
21302;DHT22;10810;48.270;9.996;2022-08-19T07:42:42;20.80;98.20
21302;DHT22;10810;48.270;9.996;2022-08-19T07:45:09;20.80;98.20
21302;DHT22;10810;48.270;9.996;2022-08-19T07:47:37;20.80;98.20
21302;DHT22;10810;48.270;9.996;2022-08-19T07:50:10;20.80;98.20
21302;DHT22;10810;48.270;9.996;2022-08-19T07:52:38;20.80;98.40
21302;DHT22;10810;48.270;9.996;2022-08-19T07:55:09;20.80;98.30
21302;DHT22;10810;48.270;9.996;2022-08-19T07:57:37;20.80;98.70
21302;DHT22;10810;48.270;9.996;2022-08-19T08:00:07;20.70;98.40
21302;DHT22;10810;48.270;9.996;2022-08-19T08:02:43;20.70;98.50
21302;DHT22;10810;48.270;9.996;2022-08-19T08:05:15;20.70;98.50
21302;DHT22;10810;48.270;9.996;2022-08-19T08:07:59;20.70;98.50
21302;DHT22;10810;48.270;9.996;2022-08-19T08:10:45;20.70;98.60
21302;DHT22;10810;48.270;9.996;2022-08-19T08:13:12;20.80;98.70
21302;DHT22;10810;48.270;9.996;2022-08-19T08:15:39;20.70;98.70
21302;DHT22;10810;48.270;9.996;2022-08-19T08:18:06;20.70;98.70
21302;DHT22;10810;48.270;9.996;2022-08-19T08:20:33;20.70;98.70
21302;DHT22;10810;48.270;9.996;2022-08-19T08:23:14;20.80;98.70
21302;DHT22;10810;48.270;9.996;2022-08-19T08:25:57;20.80;98.80
21302;DHT22;10810;48.270;9.996;2022-08-19T08:28:37;20.80;98.80
21302;DHT22;10810;48.270;9.996;2022-08-19T08:31:14;20.80;98.70
21302;DHT22;10810;48.270;9.996;2022-08-19T08:33:41;20.80;98.70
21302;DHT22;10810;48.270;9.996;2022-08-19T08:36:12;20.80;98.70
21302;DHT22;10810;48.270;9.996;2022-08-19T08:39:11;20.80;98.70
21302;DHT22;10810;48.270;9.996;2022-08-19T08:42:07;20.80;98.70
21302;DHT22;10810;48.270;9.996;2022-08-19T08:44:43;20.80;98.80
21302;DHT22;10810;48.270;9.996;2022-08-19T08:47:17;20.90;98.90
21302;DHT22;10810;48.270;9.996;2022-08-19T08:50:06;20.80;98.80
21302;DHT22;10810;48.270;9.996;2022-08-19T08:52:39;20.80;98.90
21302;DHT22;10810;48.270;9.996;2022-08-19T08:55:34;20.80;98.90
21302;DHT22;10810;48.270;9.996;2022-08-19T08:58:26;20.80;98.90
21302;DHT22;10810;48.270;9.996;2022-08-19T09:01:05;20.80;98.90
21302;DHT22;10810;48.270;9.996;2022-08-19T09:03:41;20.80;98.90
21302;DHT22;10810;48.270;9.996;2022-08-19T09:06:47;20.80;98.90
21302;DHT22;10810;48.270;9.996;2022-08-19T09:09:40;20.80;98.90
21302;DHT22;10810;48.270;9.996;2022-08-19T09:12:26;20.90;98.90
21302;DHT22;10810;48.270;9.996;2022-08-19T09:15:18;20.90;98.90
21302;DHT22;10810;48.270;9.996;2022-08-19T09:17:50;20.90;99.00
21302;DHT22;10810;48.270;9.996;2022-08-19T09:20:20;20.80;99.00
21302;DHT22;10810;48.270;9.996;2022-08-19T09:22:48;20.90;99.00
21302;DHT22;10810;48.270;9.996;2022-08-19T09:25:18;20.80;98.90
21302;DHT22;10810;48.270;9.996;2022-08-19T09:27:47;20.80;98.90
21302;DHT22;10810;48.270;9.996;2022-08-19T09:30:20;20.80;99.00
21302;DHT22;10810;48.270;9.996;2022-08-19T09:32:49;20.80;99.00
21302;DHT22;10810;48.270;9.996;2022-08-19T09:35:20;20.80;98.90
21302;DHT22;10810;48.270;9.996;2022-08-19T09:37:51;20.80;98.90
21302;DHT22;10810;48.270;9.996;2022-08-19T09:40:47;20.80;98.90
21302;DHT22;10810;48.270;9.996;2022-08-19T09:43:34;20.80;99.00
21302;DHT22;10810;48.270;9.996;2022-08-19T09:49:48;20.80;98.90
21302;DHT22;10810;48.270;9.996;2022-08-19T09:52:22;20.80;98.80
21302;DHT22;10810;48.270;9.996;2022-08-19T09:54:57;20.70;98.90
21302;DHT22;10810;48.270;9.996;2022-08-19T09:57:25;20.80;98.90
21302;DHT22;10810;48.270;9.996;2022-08-19T09:59:53;20.80;98.80
21302;DHT22;10810;48.270;9.996;2022-08-19T10:02:35;20.80;98.90
21302;DHT22;10810;48.270;9.996;2022-08-19T10:05:04;20.70;99.00
21302;DHT22;10810;48.270;9.996;2022-08-19T10:07:48;20.70;98.90
21302;DHT22;10810;48.270;9.996;2022-08-19T10:10:18;20.70;98.90
21302;DHT22;10810;48.270;9.996;2022-08-19T10:15:40;20.70;99.20
21302;DHT22;10810;48.270;9.996;2022-08-19T10:18:14;20.80;98.90
21302;DHT22;10810;48.270;9.996;2022-08-19T10:21:03;20.80;98.90
21302;DHT22;10810;48.270;9.996;2022-08-19T10:23:34;20.70;98.90
21302;DHT22;10810;48.270;9.996;2022-08-19T10:26:02;20.70;98.80
21302;DHT22;10810;48.270;9.996;2022-08-19T10:28:34;20.70;98.80
21302;DHT22;10810;48.270;9.996;2022-08-19T10:31:06;20.70;99.00
21302;DHT22;10810;48.270;9.996;2022-08-19T10:33:35;20.70;99.10
21302;DHT22;10810;48.270;9.996;2022-08-19T10:36:07;20.70;99.10
21302;DHT22;10810;48.270;9.996;2022-08-19T10:38:35;20.70;99.20
21302;DHT22;10810;48.270;9.996;2022-08-19T10:41:10;20.70;99.50
21302;DHT22;10810;48.270;9.996;2022-08-19T10:43:40;20.70;99.20
21302;DHT22;10810;48.270;9.996;2022-08-19T10:46:13;20.70;99.20
21302;DHT22;10810;48.270;9.996;2022-08-19T10:48:41;20.70;99.30
21302;DHT22;10810;48.270;9.996;2022-08-19T10:51:10;20.70;99.30
21302;DHT22;10810;48.270;9.996;2022-08-19T10:53:55;20.70;99.30
21302;DHT22;10810;48.270;9.996;2022-08-19T10:56:33;20.70;99.30
21302;DHT22;10810;48.270;9.996;2022-08-19T10:59:20;20.70;99.30
21302;DHT22;10810;48.270;9.996;2022-08-19T11:01:48;20.70;99.30
21302;DHT22;10810;48.270;9.996;2022-08-19T11:04:16;20.70;99.40
21302;DHT22;10810;48.270;9.996;2022-08-19T11:06:46;20.70;99.40
21302;DHT22;10810;48.270;9.996;2022-08-19T11:09:14;20.70;99.40
21302;DHT22;10810;48.270;9.996;2022-08-19T11:11:48;20.70;99.40
21302;DHT22;10810;48.270;9.996;2022-08-19T11:14:38;20.70;99.40
21302;DHT22;10810;48.270;9.996;2022-08-19T11:17:21;20.60;99.30
21302;DHT22;10810;48.270;9.996;2022-08-19T11:19:49;20.70;99.30
21302;DHT22;10810;48.270;9.996;2022-08-19T11:22:17;20.70;99.30
21302;DHT22;10810;48.270;9.996;2022-08-19T11:24:45;20.70;99.30
21302;DHT22;10810;48.270;9.996;2022-08-19T11:27:12;20.70;99.60
21302;DHT22;10810;48.270;9.996;2022-08-19T11:29:40;20.70;99.30
21302;DHT22;10810;48.270;9.996;2022-08-19T11:32:09;20.70;99.30
21302;DHT22;10810;48.270;9.996;2022-08-19T11:34:39;20.70;99.40
21302;DHT22;10810;48.270;9.996;2022-08-19T11:37:07;20.70;99.40
21302;DHT22;10810;48.270;9.996;2022-08-19T11:39:36;20.70;99.30
21302;DHT22;10810;48.270;9.996;2022-08-19T11:42:07;20.70;99.40
21302;DHT22;10810;48.270;9.996;2022-08-19T11:44:48;20.70;99.40
21302;DHT22;10810;48.270;9.996;2022-08-19T11:47:17;20.70;99.30
21302;DHT22;10810;48.270;9.996;2022-08-19T11:49:49;20.70;99.40
21302;DHT22;10810;48.270;9.996;2022-08-19T11:52:17;20.70;99.20
21302;DHT22;10810;48.270;9.996;2022-08-19T11:54:45;20.70;99.30
21302;DHT22;10810;48.270;9.996;2022-08-19T11:57:21;20.70;99.30
21302;DHT22;10810;48.270;9.996;2022-08-19T12:00:04;20.70;99.40
21302;DHT22;10810;48.270;9.996;2022-08-19T12:03:02;20.70;99.40
21302;DHT22;10810;48.270;9.996;2022-08-19T12:05:52;20.70;99.40
21302;DHT22;10810;48.270;9.996;2022-08-19T12:08:20;20.70;99.40
21302;DHT22;10810;48.270;9.996;2022-08-19T12:16:56;20.60;99.40
21302;DHT22;10810;48.270;9.996;2022-08-19T12:22:50;20.60;99.40
21302;DHT22;10810;48.270;9.996;2022-08-19T12:25:49;20.60;99.40
21302;DHT22;10810;48.270;9.996;2022-08-19T12:28:20;20.60;99.40
21302;DHT22;10810;48.270;9.996;2022-08-19T12:30:49;20.60;99.40
21302;DHT22;10810;48.270;9.996;2022-08-19T12:33:21;20.60;99.40
21302;DHT22;10810;48.270;9.996;2022-08-19T12:36:00;20.60;99.50
21302;DHT22;10810;48.270;9.996;2022-08-19T12:38:33;20.60;99.60
21302;DHT22;10810;48.270;9.996;2022-08-19T12:41:05;20.60;99.50
21302;DHT22;10810;48.270;9.996;2022-08-19T12:43:36;20.60;99.50
21302;DHT22;10810;48.270;9.996;2022-08-19T12:46:07;20.60;99.60
21302;DHT22;10810;48.270;9.996;2022-08-19T12:48:35;20.60;99.60
21302;DHT22;10810;48.270;9.996;2022-08-19T12:51:08;20.60;99.60
21302;DHT22;10810;48.270;9.996;2022-08-19T12:53:49;20.60;99.70
21302;DHT22;10810;48.270;9.996;2022-08-19T12:56:16;20.60;99.70
21302;DHT22;10810;48.270;9.996;2022-08-19T12:59:13;20.50;99.60
21302;DHT22;10810;48.270;9.996;2022-08-19T13:01:43;20.50;99.60
21302;DHT22;10810;48.270;9.996;2022-08-19T13:04:14;20.50;99.60
21302;DHT22;10810;48.270;9.996;2022-08-19T13:06:42;20.50;99.60
21302;DHT22;10810;48.270;9.996;2022-08-19T13:09:10;20.50;99.60
21302;DHT22;10810;48.270;9.996;2022-08-19T13:11:40;20.50;99.70
21302;DHT22;10810;48.270;9.996;2022-08-19T13:14:09;20.50;99.70
21302;DHT22;10810;48.270;9.996;2022-08-19T13:16:38;20.50;99.70
21302;DHT22;10810;48.270;9.996;2022-08-19T13:19:13;20.50;99.60
21302;DHT22;10810;48.270;9.996;2022-08-19T13:21:49;20.50;99.70
21302;DHT22;10810;48.270;9.996;2022-08-19T13:24:16;20.50;99.70
21302;DHT22;10810;48.270;9.996;2022-08-19T13:26:50;20.60;99.70
21302;DHT22;10810;48.270;9.996;2022-08-19T13:29:19;20.50;99.70
21302;DHT22;10810;48.270;9.996;2022-08-19T13:32:03;20.50;99.90
21302;DHT22;10810;48.270;9.996;2022-08-19T13:34:49;20.50;99.90
21302;DHT22;10810;48.270;9.996;2022-08-19T13:37:16;20.50;99.90
21302;DHT22;10810;48.270;9.996;2022-08-19T13:40:06;20.50;99.90
21302;DHT22;10810;48.270;9.996;2022-08-19T13:42:33;20.50;99.90
21302;DHT22;10810;48.270;9.996;2022-08-19T13:45:04;20.40;99.90
21302;DHT22;10810;48.270;9.996;2022-08-19T13:47:34;20.50;99.90
21302;DHT22;10810;48.270;9.996;2022-08-19T13:50:10;20.50;99.90
21302;DHT22;10810;48.270;9.996;2022-08-19T13:52:43;20.50;99.90
21302;DHT22;10810;48.270;9.996;2022-08-19T13:55:14;20.40;99.90
21302;DHT22;10810;48.270;9.996;2022-08-19T13:57:42;20.40;99.90
21302;DHT22;10810;48.270;9.996;2022-08-19T14:00:36;20.40;99.90
21302;DHT22;10810;48.270;9.996;2022-08-19T14:03:07;20.50;99.90
21302;DHT22;10810;48.270;9.996;2022-08-19T14:08:45;20.50;99.90
21302;DHT22;10810;48.270;9.996;2022-08-19T14:11:13;20.40;99.90
21302;DHT22;10810;48.270;9.996;2022-08-19T14:13:52;20.50;99.90
21302;DHT22;10810;48.270;9.996;2022-08-19T14:16:42;20.40;99.90
21302;DHT22;10810;48.270;9.996;2022-08-19T14:19:16;20.40;99.90
21302;DHT22;10810;48.270;9.996;2022-08-19T14:21:46;20.40;99.90
21302;DHT22;10810;48.270;9.996;2022-08-19T14:24:15;20.40;99.90
21302;DHT22;10810;48.270;9.996;2022-08-19T14:26:42;20.40;99.90
21302;DHT22;10810;48.270;9.996;2022-08-19T14:29:35;20.40;99.90
21302;DHT22;10810;48.270;9.996;2022-08-19T14:32:08;20.40;99.90
21302;DHT22;10810;48.270;9.996;2022-08-19T14:34:35;20.40;99.90
21302;DHT22;10810;48.270;9.996;2022-08-19T14:37:03;20.40;99.90
21302;DHT22;10810;48.270;9.996;2022-08-19T14:39:38;20.40;99.90
21302;DHT22;10810;48.270;9.996;2022-08-19T14:42:06;20.40;99.90
21302;DHT22;10810;48.270;9.996;2022-08-19T14:44:36;20.40;99.90
21302;DHT22;10810;48.270;9.996;2022-08-19T14:47:05;20.40;99.90
21302;DHT22;10810;48.270;9.996;2022-08-19T14:49:34;20.40;99.90
21302;DHT22;10810;48.270;9.996;2022-08-19T14:52:04;20.40;99.90
21302;DHT22;10810;48.270;9.996;2022-08-19T14:54:33;20.40;99.90
21302;DHT22;10810;48.270;9.996;2022-08-19T14:57:02;20.40;99.90
21302;DHT22;10810;48.270;9.996;2022-08-19T14:59:58;20.40;99.90
21302;DHT22;10810;48.270;9.996;2022-08-19T15:02:25;20.40;99.90
21302;DHT22;10810;48.270;9.996;2022-08-19T15:04:54;20.40;99.90
21302;DHT22;10810;48.270;9.996;2022-08-19T15:07:22;20.40;99.90
21302;DHT22;10810;48.270;9.996;2022-08-19T15:09:56;20.40;99.90
21302;DHT22;10810;48.270;9.996;2022-08-19T15:12:23;20.40;99.90
21302;DHT22;10810;48.270;9.996;2022-08-19T15:14:52;20.40;99.90
21302;DHT22;10810;48.270;9.996;2022-08-19T15:17:20;20.40;99.90
21302;DHT22;10810;48.270;9.996;2022-08-19T15:19:48;20.40;99.90
21302;DHT22;10810;48.270;9.996;2022-08-19T15:22:17;20.30;99.90
21302;DHT22;10810;48.270;9.996;2022-08-19T15:24:45;20.40;99.90
21302;DHT22;10810;48.270;9.996;2022-08-19T15:27:14;20.30;99.90
21302;DHT22;10810;48.270;9.996;2022-08-19T15:29:42;20.40;99.90
21302;DHT22;10810;48.270;9.996;2022-08-19T15:32:10;20.30;99.90
21302;DHT22;10810;48.270;9.996;2022-08-19T15:34:38;20.30;99.90
21302;DHT22;10810;48.270;9.996;2022-08-19T15:37:05;20.30;99.90
21302;DHT22;10810;48.270;9.996;2022-08-19T15:39:32;20.30;99.90
21302;DHT22;10810;48.270;9.996;2022-08-19T15:41:59;20.30;99.90
21302;DHT22;10810;48.270;9.996;2022-08-19T15:44:29;20.30;99.90
21302;DHT22;10810;48.270;9.996;2022-08-19T15:46:56;20.30;99.90
21302;DHT22;10810;48.270;9.996;2022-08-19T15:49:23;20.30;99.90
21302;DHT22;10810;48.270;9.996;2022-08-19T15:51:53;20.30;99.90
21302;DHT22;10810;48.270;9.996;2022-08-19T15:54:24;20.30;99.90
21302;DHT22;10810;48.270;9.996;2022-08-19T15:56:52;20.30;99.90
21302;DHT22;10810;48.270;9.996;2022-08-19T15:59:38;20.30;99.90
21302;DHT22;10810;48.270;9.996;2022-08-19T16:02:24;20.30;99.90
21302;DHT22;10810;48.270;9.996;2022-08-19T16:05:11;20.30;99.90
21302;DHT22;10810;48.270;9.996;2022-08-19T16:07:56;20.30;99.90
21302;DHT22;10810;48.270;9.996;2022-08-19T16:10:23;20.30;99.90
21302;DHT22;10810;48.270;9.996;2022-08-19T16:12:51;20.30;99.90
21302;DHT22;10810;48.270;9.996;2022-08-19T16:15:22;20.30;99.90
21302;DHT22;10810;48.270;9.996;2022-08-19T16:17:57;20.30;99.90
21302;DHT22;10810;48.270;9.996;2022-08-19T16:20:29;20.30;99.90
21302;DHT22;10810;48.270;9.996;2022-08-19T16:22:57;20.30;99.90
21302;DHT22;10810;48.270;9.996;2022-08-19T16:25:25;20.30;99.90